createdAt,value
2019-03-04T00:00:21.770Z,2.40
2019-03-04T00:01:21.644Z,2.00
2019-03-04T00:02:21.505Z,1.80
2019-03-04T00:03:21.374Z,2.10
2019-03-04T00:04:21.244Z,1.90
2019-03-04T00:05:21.117Z,2.20
2019-03-04T00:06:20.980Z,2.80
2019-03-04T00:07:20.849Z,2.50
2019-03-04T00:08:20.720Z,2.10
2019-03-04T00:09:20.591Z,2.40
2019-03-04T00:10:20.457Z,1.90
2019-03-04T00:11:20.328Z,1.90
2019-03-04T00:12:20.194Z,1.90
2019-03-04T00:13:20.064Z,1.70
2019-03-04T00:14:19.935Z,1.70
2019-03-04T00:15:19.803Z,1.90
2019-03-04T00:16:19.715Z,1.80
2019-03-04T00:17:19.539Z,2.00
2019-03-04T00:18:19.407Z,1.90
2019-03-04T00:19:19.280Z,2.00
2019-03-04T00:20:19.152Z,3.20
2019-03-04T00:21:19.017Z,1.60
2019-03-04T00:22:18.885Z,1.50
2019-03-04T00:23:18.754Z,1.80
2019-03-04T00:24:18.622Z,1.70
2019-03-04T00:25:18.489Z,2.00
2019-03-04T00:26:18.359Z,1.60
2019-03-04T00:27:18.230Z,1.70
2019-03-04T00:28:18.098Z,1.90
2019-03-04T00:29:17.971Z,1.50
2019-03-04T00:30:17.834Z,1.90
2019-03-04T00:31:17.702Z,2.40
2019-03-04T00:32:17.574Z,3.10
2019-03-04T00:33:17.443Z,1.70
2019-03-04T00:34:17.311Z,1.90
2019-03-04T00:35:17.180Z,1.60
2019-03-04T00:36:17.047Z,2.00
2019-03-04T00:37:16.917Z,1.60
2019-03-04T00:38:16.786Z,1.60
2019-03-04T00:39:16.655Z,2.00
2019-03-04T00:40:16.524Z,1.50
2019-03-04T00:41:16.393Z,2.50
2019-03-04T00:42:16.261Z,2.10
2019-03-04T00:43:16.133Z,2.10
2019-03-04T00:44:16.002Z,1.70
2019-03-04T00:45:15.868Z,2.00
2019-03-04T00:46:15.738Z,2.80
2019-03-04T00:47:15.607Z,2.40
2019-03-04T00:48:15.475Z,2.50
2019-03-04T00:49:15.348Z,2.10
2019-03-04T00:50:15.213Z,1.60
2019-03-04T00:51:15.083Z,2.00
2019-03-04T00:52:14.951Z,1.90
2019-03-04T00:53:14.818Z,2.10
2019-03-04T00:54:14.691Z,2.00
2019-03-04T00:55:14.556Z,1.50
2019-03-04T00:56:14.427Z,1.80
2019-03-04T00:57:14.297Z,2.00
2019-03-04T00:58:15.011Z,1.40
2019-03-04T00:59:14.050Z,1.90
2019-03-04T01:00:13.900Z,2.20
2019-03-04T01:01:13.770Z,1.70
2019-03-04T01:02:13.641Z,1.50
2019-03-04T01:03:13.507Z,1.70
2019-03-04T01:04:13.374Z,1.90
2019-03-04T01:05:13.244Z,1.80
2019-03-04T01:06:13.114Z,1.90
2019-03-04T01:07:12.981Z,2.20
2019-03-04T01:08:12.851Z,2.00
2019-03-04T01:09:12.719Z,1.90
2019-03-04T01:10:12.590Z,1.50
2019-03-04T01:11:12.457Z,1.70
2019-03-04T01:12:12.325Z,2.20
2019-03-04T01:13:12.197Z,1.70
2019-03-04T01:14:12.064Z,1.60
2019-03-04T01:15:11.931Z,1.90
2019-03-04T01:16:11.800Z,2.60
2019-03-04T01:17:11.672Z,2.00
2019-03-04T01:18:11.537Z,1.90
2019-03-04T01:19:11.412Z,1.80
2019-03-04T01:20:11.277Z,1.80
2019-03-04T01:21:11.149Z,1.60
2019-03-04T01:22:11.014Z,1.60
2019-03-04T01:23:10.882Z,1.80
2019-03-04T01:24:10.754Z,2.00
2019-03-04T01:25:10.621Z,1.70
2019-03-04T01:26:10.489Z,1.70
2019-03-04T01:27:11.021Z,1.70
2019-03-04T01:28:10.227Z,1.50
2019-03-04T01:29:10.095Z,1.60
2019-03-04T01:30:09.965Z,1.40
2019-03-04T01:31:09.836Z,1.90
2019-03-04T01:32:09.709Z,1.80
2019-03-04T01:33:09.571Z,1.40
2019-03-04T01:34:09.445Z,1.60
2019-03-04T01:35:09.311Z,1.60
2019-03-04T01:36:09.181Z,1.80
2019-03-04T01:37:09.049Z,1.10
2019-03-04T01:38:08.919Z,1.60
2019-03-04T01:39:08.785Z,1.40
2019-03-04T01:40:08.654Z,1.50
2019-03-04T01:41:08.527Z,2.20
2019-03-04T01:42:08.393Z,1.80
2019-03-04T01:43:08.262Z,1.70
2019-03-04T01:44:08.131Z,1.50
2019-03-04T01:45:07.999Z,1.70
2019-03-04T01:46:07.868Z,1.30
2019-03-04T01:47:07.737Z,1.40
2019-03-04T01:48:07.604Z,1.60
2019-03-04T01:49:07.476Z,1.40
2019-03-04T01:50:07.343Z,1.50
2019-03-04T01:51:07.211Z,2.20
2019-03-04T01:52:07.083Z,2.20
2019-03-04T01:53:06.951Z,1.40
2019-03-04T01:54:06.822Z,1.30
2019-03-04T01:55:06.688Z,2.30
2019-03-04T01:56:07.030Z,1.20
2019-03-04T01:57:06.426Z,1.60
2019-03-04T01:58:06.293Z,1.50
2019-03-04T01:59:06.162Z,1.90
2019-03-04T02:00:06.036Z,1.50
2019-03-04T02:01:05.900Z,1.40
2019-03-04T02:02:05.771Z,1.50
2019-03-04T02:03:05.639Z,1.40
2019-03-04T02:04:05.506Z,1.80
2019-03-04T02:05:05.421Z,1.40
2019-03-04T02:06:05.246Z,1.50
2019-03-04T02:07:05.117Z,1.30
2019-03-04T02:08:04.994Z,1.40
2019-03-04T02:09:04.858Z,1.40
2019-03-04T02:10:04.722Z,1.60
2019-03-04T02:11:04.591Z,1.70
2019-03-04T02:12:04.458Z,1.40
2019-03-04T02:13:04.326Z,1.20
2019-03-04T02:14:04.195Z,1.40
2019-03-04T02:15:04.065Z,1.90
2019-03-04T02:16:03.933Z,1.30
2019-03-04T02:17:03.802Z,1.80
2019-03-04T02:18:03.675Z,1.60
2019-03-04T02:19:03.543Z,1.90
2019-03-04T02:20:03.409Z,1.70
2019-03-04T02:21:03.279Z,1.40
2019-03-04T02:22:03.147Z,1.50
2019-03-04T02:23:03.014Z,1.20
2019-03-04T02:24:02.885Z,1.50
2019-03-04T02:25:03.022Z,1.20
2019-03-04T02:26:02.621Z,2.10
2019-03-04T02:27:02.491Z,1.50
2019-03-04T02:28:02.360Z,1.40
2019-03-04T02:29:02.233Z,1.60
2019-03-04T02:30:02.105Z,1.70
2019-03-04T02:31:01.968Z,1.60
2019-03-04T02:32:01.843Z,1.60
2019-03-04T02:33:01.705Z,1.30
2019-03-04T02:34:01.580Z,1.50
2019-03-04T02:35:01.448Z,1.60
2019-03-04T02:36:01.318Z,2.10
2019-03-04T02:37:01.183Z,2.00
2019-03-04T02:38:01.049Z,1.30
2019-03-04T02:39:00.923Z,2.90
2019-03-04T02:40:00.802Z,1.10
2019-03-04T02:41:00.660Z,1.50
2019-03-04T02:42:00.527Z,1.40
2019-03-04T02:43:00.394Z,1.40
2019-03-04T02:44:00.263Z,1.40
2019-03-04T02:45:00.383Z,1.60
2019-03-04T02:46:00.000Z,1.40
2019-03-04T02:46:59.869Z,1.30
2019-03-04T02:47:59.741Z,1.90
2019-03-04T02:48:59.610Z,2.00
2019-03-04T02:49:59.488Z,1.20
2019-03-04T02:50:59.347Z,1.40
2019-03-04T02:51:59.215Z,1.70
2019-03-04T02:52:59.110Z,1.50
2019-03-04T02:53:59.039Z,1.30
2019-03-04T02:54:58.821Z,1.40
2019-03-04T02:55:58.690Z,1.70
2019-03-04T02:56:58.560Z,1.40
2019-03-04T02:57:58.430Z,1.90
2019-03-04T02:58:58.299Z,2.40
2019-03-04T02:59:58.171Z,1.20
2019-03-04T03:00:58.035Z,1.40
2019-03-04T03:01:57.901Z,1.50
2019-03-04T03:02:57.769Z,1.40
2019-03-04T03:03:57.642Z,1.40
2019-03-04T03:04:57.509Z,1.80
2019-03-04T03:05:57.378Z,1.40
2019-03-04T03:06:57.248Z,1.30
2019-03-04T03:07:57.128Z,1.40
2019-03-04T03:08:56.990Z,1.80
2019-03-04T03:09:56.852Z,1.40
2019-03-04T03:10:56.727Z,1.40
2019-03-04T03:11:56.591Z,1.20
2019-03-04T03:12:56.459Z,1.50
2019-03-04T03:13:56.330Z,1.50
2019-03-04T03:14:56.205Z,1.50
2019-03-04T03:15:56.068Z,1.40
2019-03-04T03:16:55.936Z,1.70
2019-03-04T03:17:55.804Z,1.80
2019-03-04T03:18:55.673Z,1.50
2019-03-04T03:19:55.542Z,1.60
2019-03-04T03:20:55.420Z,1.50
2019-03-04T03:21:55.280Z,1.50
2019-03-04T03:22:55.146Z,1.00
2019-03-04T03:23:55.015Z,1.20
2019-03-04T03:24:54.883Z,1.40
2019-03-04T03:25:54.752Z,1.40
2019-03-04T03:26:54.625Z,1.60
2019-03-04T03:27:54.489Z,2.00
2019-03-04T03:28:54.365Z,1.80
2019-03-04T03:29:54.229Z,1.60
2019-03-04T03:30:54.108Z,1.80
2019-03-04T03:31:53.971Z,1.20
2019-03-04T03:32:53.839Z,1.60
2019-03-04T03:33:53.714Z,1.40
2019-03-04T03:34:53.572Z,1.30
2019-03-04T03:35:53.441Z,1.60
2019-03-04T03:36:53.309Z,1.50
2019-03-04T03:37:53.184Z,1.20
2019-03-04T03:38:53.047Z,2.00
2019-03-04T03:39:52.915Z,1.20
2019-03-04T03:40:52.782Z,1.30
2019-03-04T03:41:52.654Z,1.50
2019-03-04T03:42:52.521Z,1.30
2019-03-04T03:43:52.393Z,1.30
2019-03-04T03:44:52.260Z,2.20
2019-03-04T03:45:52.126Z,1.40
2019-03-04T03:46:51.996Z,1.40
2019-03-04T03:47:51.866Z,2.10
2019-03-04T03:48:51.732Z,1.80
2019-03-04T03:49:51.606Z,1.60
2019-03-04T03:50:51.474Z,1.70
2019-03-04T03:51:51.338Z,1.60
2019-03-04T03:52:51.210Z,1.70
2019-03-04T03:53:51.078Z,1.40
2019-03-04T03:54:50.947Z,1.40
2019-03-04T03:55:50.817Z,1.20
2019-03-04T03:56:50.688Z,1.50
2019-03-04T03:57:50.554Z,1.50
2019-03-04T03:58:50.424Z,1.40
2019-03-04T03:59:50.294Z,1.40
2019-03-04T04:00:50.160Z,1.50
2019-03-04T04:01:50.106Z,1.70
2019-03-04T04:02:49.896Z,1.20
2019-03-04T04:03:49.769Z,1.20
2019-03-04T04:04:49.634Z,1.30
2019-03-04T04:05:49.501Z,1.60
2019-03-04T04:06:49.374Z,2.00
2019-03-04T04:07:49.240Z,1.30
2019-03-04T04:08:49.109Z,1.40
2019-03-04T04:09:48.979Z,1.30
2019-03-04T04:10:48.858Z,1.30
2019-03-04T04:11:48.717Z,1.90
2019-03-04T04:12:48.585Z,1.20
2019-03-04T04:13:48.455Z,1.70
2019-03-04T04:14:48.324Z,1.30
2019-03-04T04:15:48.194Z,1.50
2019-03-04T04:16:48.062Z,1.50
2019-03-04T04:17:47.929Z,1.70
2019-03-04T04:18:47.804Z,1.70
2019-03-04T04:19:47.707Z,1.20
2019-03-04T04:20:47.539Z,1.50
2019-03-04T04:21:47.407Z,2.80
2019-03-04T04:22:47.289Z,1.10
2019-03-04T04:23:47.146Z,1.60
2019-03-04T04:24:47.020Z,1.40
2019-03-04T04:25:46.886Z,1.20
2019-03-04T04:26:46.757Z,1.40
2019-03-04T04:27:46.633Z,1.50
2019-03-04T04:28:46.495Z,1.80
2019-03-04T04:29:46.362Z,1.20
2019-03-04T04:30:46.229Z,1.30
2019-03-04T04:31:46.100Z,1.70
2019-03-04T04:32:45.970Z,1.50
2019-03-04T04:33:45.837Z,1.90
2019-03-04T04:34:45.708Z,1.80
2019-03-04T04:35:45.577Z,1.10
2019-03-04T04:36:45.446Z,1.70
2019-03-04T04:37:45.317Z,1.20
2019-03-04T04:38:45.186Z,2.10
2019-03-04T04:39:45.055Z,1.30
2019-03-04T04:40:44.925Z,1.80
2019-03-04T04:41:44.792Z,1.40
2019-03-04T04:42:44.663Z,1.60
2019-03-04T04:43:44.532Z,1.40
2019-03-04T04:44:44.400Z,1.70
2019-03-04T04:45:44.276Z,1.50
2019-03-04T04:46:44.138Z,1.40
2019-03-04T04:47:44.012Z,1.60
2019-03-04T04:48:43.878Z,1.90
2019-03-04T04:49:43.747Z,1.70
2019-03-04T04:50:43.618Z,1.70
2019-03-04T04:51:43.495Z,1.90
2019-03-04T04:52:43.355Z,1.40
2019-03-04T04:53:43.223Z,1.30
2019-03-04T04:54:43.093Z,1.40
2019-03-04T04:55:42.964Z,2.00
2019-03-04T04:56:42.832Z,3.00
2019-03-04T04:57:42.709Z,1.70
2019-03-04T04:58:42.572Z,1.30
2019-03-04T04:59:42.446Z,1.70
2019-03-04T05:00:42.348Z,1.80
2019-03-04T05:01:42.180Z,1.30
2019-03-04T05:02:42.053Z,1.60
2019-03-04T05:03:41.924Z,1.40
2019-03-04T05:04:41.790Z,4.80
2019-03-04T05:05:41.662Z,1.50
2019-03-04T05:06:41.529Z,1.60
2019-03-04T05:07:41.398Z,1.40
2019-03-04T05:08:41.267Z,1.30
2019-03-04T05:09:41.135Z,1.40
2019-03-04T05:10:41.005Z,1.30
2019-03-04T05:11:40.876Z,1.30
2019-03-04T05:12:40.743Z,2.10
2019-03-04T05:13:40.614Z,1.20
2019-03-04T05:14:40.483Z,1.30
2019-03-04T05:15:40.351Z,1.30
2019-03-04T05:16:40.221Z,1.60
2019-03-04T05:17:40.090Z,1.60
2019-03-04T05:18:39.959Z,1.60
2019-03-04T05:19:39.830Z,1.70
2019-03-04T05:20:39.697Z,2.00
2019-03-04T05:21:39.566Z,1.40
2019-03-04T05:22:39.438Z,2.20
2019-03-04T05:23:39.307Z,1.40
2019-03-04T05:24:39.174Z,1.30
2019-03-04T05:25:39.045Z,1.70
2019-03-04T05:26:38.917Z,1.60
2019-03-04T05:27:38.784Z,1.40
2019-03-04T05:28:38.652Z,1.10
2019-03-04T05:29:38.521Z,1.60
2019-03-04T05:30:38.392Z,1.30
2019-03-04T05:31:38.261Z,1.60
2019-03-04T05:32:38.129Z,1.50
2019-03-04T05:33:38.000Z,1.60
2019-03-04T05:34:37.871Z,1.80
2019-03-04T05:35:37.735Z,1.90
2019-03-04T05:36:37.606Z,1.50
2019-03-04T05:37:37.473Z,1.40
2019-03-04T05:38:37.344Z,1.30
2019-03-04T05:39:37.214Z,1.50
2019-03-04T05:40:37.186Z,2.70
2019-03-04T05:41:36.963Z,1.80
2019-03-04T05:42:36.821Z,1.30
2019-03-04T05:43:36.690Z,1.40
2019-03-04T05:44:36.562Z,2.10
2019-03-04T05:45:36.431Z,1.70
2019-03-04T05:46:36.299Z,1.50
2019-03-04T05:47:36.169Z,2.70
2019-03-04T05:48:36.040Z,1.70
2019-03-04T05:49:35.909Z,1.30
2019-03-04T05:50:35.778Z,1.40
2019-03-04T05:51:35.646Z,1.30
2019-03-04T05:52:35.520Z,1.60
2019-03-04T05:53:35.384Z,1.40
2019-03-04T05:54:35.257Z,1.40
2019-03-04T05:55:35.122Z,2.60
2019-03-04T05:56:34.996Z,1.50
2019-03-04T05:57:34.863Z,1.40
2019-03-04T05:58:34.732Z,2.30
2019-03-04T05:59:34.601Z,1.70
2019-03-04T06:00:34.471Z,1.60
2019-03-04T06:01:34.343Z,1.50
2019-03-04T06:02:34.209Z,1.20
2019-03-04T06:03:34.079Z,1.30
2019-03-04T06:04:33.958Z,1.50
2019-03-04T06:05:33.817Z,1.70
2019-03-04T06:06:33.687Z,1.70
2019-03-04T06:07:33.556Z,1.40
2019-03-04T06:08:33.428Z,2.30
2019-03-04T06:09:33.294Z,2.00
2019-03-04T06:10:33.166Z,8.60
2019-03-04T06:11:33.034Z,7.40
2019-03-04T06:12:32.902Z,4.00
2019-03-04T06:13:32.770Z,1.90
2019-03-04T06:14:32.639Z,1.20
2019-03-04T06:15:32.510Z,2.10
2019-03-04T06:16:32.378Z,1.60
2019-03-04T06:17:33.178Z,1.50
2019-03-04T06:18:32.121Z,1.60
2019-03-04T06:19:31.992Z,1.80
2019-03-04T06:20:31.856Z,2.50
2019-03-04T06:21:31.724Z,2.60
2019-03-04T06:22:31.594Z,1.80
2019-03-04T06:23:31.462Z,1.40
2019-03-04T06:24:31.334Z,2.00
2019-03-04T06:25:31.214Z,1.80
2019-03-04T06:26:31.071Z,1.60
2019-03-04T06:27:30.939Z,2.20
2019-03-04T06:28:30.808Z,1.70
2019-03-04T06:29:30.685Z,1.70
2019-03-04T06:30:30.547Z,1.40
2019-03-04T06:31:30.417Z,1.80
2019-03-04T06:32:30.287Z,25.10
2019-03-04T06:33:30.155Z,26.30
2019-03-04T06:34:30.024Z,2.20
2019-03-04T06:35:29.895Z,2.10
2019-03-04T06:36:29.766Z,1.60
2019-03-04T06:37:29.632Z,1.40
2019-03-04T06:38:29.500Z,1.80
2019-03-04T06:39:29.377Z,1.50
2019-03-04T06:40:29.241Z,1.90
2019-03-04T06:41:29.115Z,1.80
2019-03-04T06:42:28.979Z,2.00
2019-03-04T06:43:28.851Z,1.50
2019-03-04T06:44:28.716Z,2.60
2019-03-04T06:45:28.587Z,2.30
2019-03-04T06:46:29.175Z,2.30
2019-03-04T06:47:28.324Z,2.00
2019-03-04T06:48:28.199Z,1.90
2019-03-04T06:49:28.068Z,1.70
2019-03-04T06:50:27.942Z,1.60
2019-03-04T06:51:27.834Z,1.80
2019-03-04T06:52:27.674Z,2.30
2019-03-04T06:53:27.544Z,1.50
2019-03-04T06:54:27.437Z,1.60
2019-03-04T06:55:27.285Z,1.90
2019-03-04T06:56:27.152Z,2.70
2019-03-04T06:57:28.628Z,2.00
2019-03-04T06:58:26.892Z,2.00
2019-03-04T06:59:26.760Z,1.50
2019-03-04T07:00:26.630Z,2.10
2019-03-04T07:01:26.534Z,2.20
2019-03-04T07:02:26.372Z,1.70
2019-03-04T07:03:26.245Z,1.70
2019-03-04T07:04:26.113Z,1.60
2019-03-04T07:05:25.980Z,1.70
2019-03-04T07:06:25.853Z,2.00
2019-03-04T07:07:25.722Z,5.80
2019-03-04T07:08:25.593Z,14.20
2019-03-04T07:09:25.462Z,1.60
2019-03-04T07:10:25.332Z,1.80
2019-03-04T07:11:25.203Z,1.80
2019-03-04T07:12:25.072Z,1.60
2019-03-04T07:13:24.940Z,1.70
2019-03-04T07:14:24.813Z,1.60
2019-03-04T07:15:25.185Z,1.80
2019-03-04T07:16:24.558Z,1.80
2019-03-04T07:17:24.423Z,3.10
2019-03-04T07:18:24.293Z,1.70
2019-03-04T07:19:24.163Z,1.70
2019-03-04T07:20:24.048Z,2.50
2019-03-04T07:21:23.906Z,1.80
2019-03-04T07:22:23.774Z,2.90
2019-03-04T07:23:23.646Z,4.10
2019-03-04T07:24:23.517Z,3.80
2019-03-04T07:25:23.388Z,2.70
2019-03-04T07:26:23.257Z,2.50
2019-03-04T07:27:23.130Z,1.90
2019-03-04T07:28:23.001Z,1.90
2019-03-04T07:29:22.872Z,6.60
2019-03-04T07:30:22.743Z,5.80
2019-03-04T07:31:22.616Z,2.80
2019-03-04T07:32:22.485Z,1.80
2019-03-04T07:33:22.357Z,1.70
2019-03-04T07:34:22.230Z,1.70
2019-03-04T07:35:22.101Z,2.10
2019-03-04T07:36:21.971Z,1.70
2019-03-04T07:37:21.844Z,1.90
2019-03-04T07:38:21.715Z,1.80
2019-03-04T07:39:21.586Z,2.10
2019-03-04T07:40:21.457Z,1.90
2019-03-04T07:41:21.327Z,1.80
2019-03-04T07:42:21.203Z,1.90
2019-03-04T07:43:21.070Z,1.70
2019-03-04T07:44:21.198Z,2.20
2019-03-04T07:45:20.813Z,2.40
2019-03-04T07:46:20.686Z,1.70
2019-03-04T07:47:20.606Z,1.60
2019-03-04T07:48:20.429Z,1.90
2019-03-04T07:49:20.303Z,2.40
2019-03-04T07:50:20.174Z,2.30
2019-03-04T07:51:20.047Z,2.80
2019-03-04T07:52:19.921Z,2.60
2019-03-04T07:53:19.795Z,2.90
2019-03-04T07:54:19.664Z,2.00
2019-03-04T07:55:19.536Z,2.10
2019-03-04T07:56:19.415Z,2.50
2019-03-04T07:57:19.283Z,1.90
2019-03-04T07:58:19.152Z,6.60
2019-03-04T07:59:19.030Z,2.40
2019-03-04T08:00:18.899Z,1.80
2019-03-04T08:01:18.773Z,1.60
2019-03-04T08:02:18.649Z,3.60
2019-03-04T08:03:18.521Z,2.90
2019-03-04T08:04:18.401Z,2.00
2019-03-04T08:05:18.271Z,1.90
2019-03-04T08:06:18.143Z,2.10
2019-03-04T08:07:18.014Z,2.00
2019-03-04T08:08:17.888Z,2.80
2019-03-04T08:09:17.764Z,2.20
2019-03-04T08:10:17.635Z,2.20
2019-03-04T08:11:17.516Z,2.70
2019-03-04T08:12:17.384Z,5.10
2019-03-04T08:13:17.260Z,2.30
2019-03-04T08:14:17.134Z,2.70
2019-03-04T08:15:17.012Z,2.00
2019-03-04T08:16:16.885Z,2.10
2019-03-04T08:17:16.755Z,2.20
2019-03-04T08:18:16.634Z,3.10
2019-03-04T08:19:16.507Z,2.20
2019-03-04T08:20:16.382Z,2.90
2019-03-04T08:21:16.256Z,2.40
2019-03-04T08:22:16.130Z,2.50
2019-03-04T08:23:16.006Z,2.50
2019-03-04T08:24:15.884Z,2.10
2019-03-04T08:25:15.757Z,2.50
2019-03-04T08:26:15.634Z,2.90
2019-03-04T08:27:15.509Z,2.30
2019-03-04T08:28:15.383Z,2.00
2019-03-04T08:29:15.260Z,1.80
2019-03-04T08:30:15.133Z,2.10
2019-03-04T08:31:15.011Z,1.80
2019-03-04T08:32:14.890Z,2.10
2019-03-04T08:33:14.762Z,2.30
2019-03-04T08:34:14.638Z,2.80
2019-03-04T08:35:14.518Z,2.90
2019-03-04T08:36:14.391Z,1.80
2019-03-04T08:37:14.274Z,2.10
2019-03-04T08:38:14.142Z,2.30
2019-03-04T08:39:14.018Z,2.00
2019-03-04T08:40:13.896Z,2.60
2019-03-04T08:41:13.770Z,2.40
2019-03-04T08:42:13.646Z,2.60
2019-03-04T08:43:13.524Z,2.60
2019-03-04T08:44:13.404Z,1.80
2019-03-04T08:45:13.277Z,2.00
2019-03-04T08:46:13.159Z,2.20
2019-03-04T08:47:13.031Z,2.40
2019-03-04T08:48:12.911Z,4.50
2019-03-04T08:49:12.787Z,3.30
2019-03-04T08:50:12.662Z,2.80
2019-03-04T08:51:12.536Z,2.20
2019-03-04T08:52:12.415Z,2.10
2019-03-04T08:53:12.291Z,2.60
2019-03-04T08:54:12.168Z,3.40
2019-03-04T08:55:12.046Z,2.60
2019-03-04T08:56:12.449Z,2.70
2019-03-04T08:57:11.797Z,3.40
2019-03-04T08:58:11.674Z,2.50
2019-03-04T08:59:11.550Z,4.60
2019-03-04T09:00:11.429Z,3.90
2019-03-04T09:01:11.302Z,3.80
2019-03-04T09:02:11.182Z,3.40
2019-03-04T09:03:11.061Z,3.30
2019-03-04T09:04:10.938Z,3.10
2019-03-04T09:05:10.815Z,3.90
2019-03-04T09:06:10.693Z,2.80
2019-03-04T09:07:10.569Z,2.80
2019-03-04T09:08:10.447Z,2.80
2019-03-04T09:09:10.322Z,4.00
2019-03-04T09:10:10.201Z,5.00
2019-03-04T09:11:10.080Z,5.30
2019-03-04T09:12:09.957Z,4.30
2019-03-04T09:13:09.834Z,8.40
2019-03-04T09:14:09.713Z,4.90
2019-03-04T09:15:09.591Z,7.20
2019-03-04T09:16:09.469Z,3.00
2019-03-04T09:17:10.741Z,4.00
2019-03-04T09:18:09.225Z,5.60
2019-03-04T09:19:09.102Z,6.00
2019-03-04T09:20:08.993Z,6.40
2019-03-04T09:21:08.856Z,3.60
2019-03-04T09:22:08.736Z,5.40
2019-03-04T09:23:08.616Z,5.20
2019-03-04T09:24:08.490Z,3.20
2019-03-04T09:25:08.368Z,2.80
2019-03-04T09:26:08.247Z,4.50
2019-03-04T09:27:08.125Z,3.30
2019-03-04T09:28:08.006Z,5.30
2019-03-04T09:29:07.895Z,4.00
2019-03-04T09:30:07.754Z,4.60
2019-03-04T09:31:07.635Z,4.50
2019-03-04T09:32:07.514Z,3.40
2019-03-04T09:33:07.389Z,3.40
2019-03-04T09:34:07.266Z,5.20
2019-03-04T09:35:07.144Z,4.20
2019-03-04T09:36:07.024Z,4.20
2019-03-04T09:37:06.901Z,3.60
2019-03-04T09:38:06.830Z,4.50
2019-03-04T09:39:06.656Z,4.30
2019-03-04T09:40:06.533Z,4.60
2019-03-04T09:41:07.247Z,5.80
2019-03-04T09:42:06.289Z,3.70
2019-03-04T09:43:06.173Z,4.10
2019-03-04T09:44:06.049Z,4.50
2019-03-04T09:45:05.926Z,5.20
2019-03-04T09:46:05.804Z,5.00
2019-03-04T09:47:05.683Z,3.70
2019-03-04T09:48:05.559Z,3.20
2019-03-04T09:49:05.437Z,3.70
2019-03-04T09:50:05.314Z,5.80
2019-03-04T09:51:05.254Z,3.70
2019-03-04T09:52:05.072Z,4.70
2019-03-04T09:53:04.957Z,3.50
2019-03-04T09:54:04.829Z,4.00
2019-03-04T09:55:04.707Z,5.00
2019-03-04T09:56:04.585Z,3.30
2019-03-04T09:57:04.460Z,4.20
2019-03-04T09:58:04.347Z,5.10
2019-03-04T09:59:04.218Z,5.10
2019-03-04T10:00:04.098Z,3.90
2019-03-04T10:01:03.974Z,4.40
2019-03-04T10:02:03.852Z,5.80
2019-03-04T10:03:03.732Z,3.70
2019-03-04T10:04:03.612Z,4.10
2019-03-04T10:05:03.488Z,3.90
2019-03-04T10:06:03.363Z,4.30
2019-03-04T10:07:03.242Z,4.50
2019-03-04T10:08:03.122Z,4.50
2019-03-04T10:09:02.999Z,4.30
2019-03-04T10:10:03.248Z,3.80
2019-03-04T10:11:02.761Z,5.00
2019-03-04T10:12:02.633Z,4.20
2019-03-04T10:13:02.510Z,4.00
2019-03-04T10:14:02.390Z,4.80
2019-03-04T10:15:08.462Z,4.80
2019-03-04T10:16:02.147Z,6.60
2019-03-04T10:17:02.022Z,6.50
2019-03-04T10:18:01.912Z,5.40
2019-03-04T10:19:01.778Z,5.90
2019-03-04T10:20:01.652Z,4.00
2019-03-04T10:21:01.531Z,6.40
2019-03-04T10:22:01.406Z,5.10
2019-03-04T10:23:01.286Z,5.30
2019-03-04T10:24:01.158Z,4.20
2019-03-04T10:25:01.036Z,6.10
2019-03-04T10:26:00.910Z,5.50
2019-03-04T10:27:00.791Z,8.20
2019-03-04T10:28:00.676Z,7.00
2019-03-04T10:29:02.201Z,4.40
2019-03-04T10:30:00.415Z,6.90
2019-03-04T10:31:00.290Z,6.00
2019-03-04T10:32:00.163Z,4.30
2019-03-04T10:33:00.098Z,5.80
2019-03-04T10:33:59.913Z,5.50
2019-03-04T10:34:59.793Z,11.20
2019-03-04T10:35:59.665Z,11.40
2019-03-04T10:36:59.538Z,7.30
2019-03-04T10:37:59.414Z,5.50
2019-03-04T10:38:59.291Z,4.80
2019-03-04T10:39:59.167Z,7.10
2019-03-04T10:40:59.038Z,4.90
2019-03-04T10:41:58.915Z,5.80
2019-03-04T10:42:58.791Z,5.50
2019-03-04T10:43:58.666Z,4.60
2019-03-04T10:44:58.539Z,5.40
2019-03-04T10:45:58.417Z,5.10
2019-03-04T10:46:58.293Z,4.10
2019-03-04T10:47:58.170Z,4.60
2019-03-04T10:48:58.039Z,4.60
2019-03-04T10:49:57.916Z,6.20
2019-03-04T10:50:57.792Z,5.80
2019-03-04T10:51:57.665Z,4.10
2019-03-04T10:52:57.541Z,4.20
2019-03-04T10:53:57.415Z,4.60
2019-03-04T10:54:57.290Z,4.70
2019-03-04T10:55:57.165Z,4.90
2019-03-04T10:56:57.043Z,4.00
2019-03-04T10:57:56.918Z,4.10
2019-03-04T10:58:56.793Z,4.70
2019-03-04T10:59:56.666Z,4.90
2019-03-04T11:00:56.541Z,6.00
2019-03-04T11:01:56.414Z,3.90
2019-03-04T11:02:56.294Z,3.60
2019-03-04T11:03:56.169Z,4.70
2019-03-04T11:04:56.090Z,3.20
2019-03-04T11:05:55.917Z,3.60
2019-03-04T11:06:55.869Z,3.20
2019-03-04T11:07:55.668Z,4.80
2019-03-04T11:08:55.541Z,4.40
2019-03-04T11:09:55.420Z,3.80
2019-03-04T11:10:55.296Z,5.00
2019-03-04T11:11:55.172Z,3.90
2019-03-04T11:12:55.046Z,3.80
2019-03-04T11:13:54.922Z,4.80
2019-03-04T11:14:54.795Z,3.20
2019-03-04T11:15:54.673Z,4.90
2019-03-04T11:16:54.548Z,3.20
2019-03-04T11:17:54.717Z,5.00
2019-03-04T11:18:54.297Z,2.80
2019-03-04T11:19:54.175Z,4.40
2019-03-04T11:20:54.050Z,3.80
2019-03-04T11:21:53.925Z,3.60
2019-03-04T11:22:53.807Z,4.80
2019-03-04T11:23:53.680Z,4.20
2019-03-04T11:24:53.551Z,3.70
2019-03-04T11:25:53.432Z,4.50
2019-03-04T11:26:53.302Z,4.90
2019-03-04T11:27:53.179Z,3.20
2019-03-04T11:28:53.052Z,3.60
2019-03-04T11:29:52.930Z,4.50
2019-03-04T11:30:52.806Z,3.20
2019-03-04T11:31:52.681Z,3.50
2019-03-04T11:32:52.560Z,2.80
2019-03-04T11:33:52.434Z,3.40
2019-03-04T11:34:52.320Z,3.90
2019-03-04T11:35:52.183Z,4.10
2019-03-04T11:36:52.063Z,3.50
2019-03-04T11:37:51.934Z,2.30
2019-03-04T11:38:51.861Z,5.00
2019-03-04T11:39:51.687Z,4.00
2019-03-04T11:40:51.562Z,3.00
2019-03-04T11:41:51.440Z,3.50
2019-03-04T11:42:51.317Z,4.10
2019-03-04T11:43:51.193Z,3.80
2019-03-04T11:44:51.070Z,4.70
2019-03-04T11:45:50.944Z,4.80
2019-03-04T11:46:50.822Z,4.80
2019-03-04T11:47:50.696Z,3.60
2019-03-04T11:48:50.574Z,3.30
2019-03-04T11:49:50.447Z,3.80
2019-03-04T11:50:50.325Z,3.20
2019-03-04T11:51:50.198Z,3.80
2019-03-04T11:52:50.073Z,3.50
2019-03-04T11:53:49.950Z,3.20
2019-03-04T11:54:49.831Z,2.80
2019-03-04T11:55:49.704Z,4.10
2019-03-04T11:56:49.577Z,3.80
2019-03-04T11:57:49.454Z,4.60
2019-03-04T11:58:49.329Z,2.60
2019-03-04T11:59:49.204Z,3.30
2019-03-04T12:00:49.082Z,3.20
2019-03-04T12:01:48.953Z,2.20
2019-03-04T12:02:48.830Z,3.40
2019-03-04T12:03:48.714Z,3.40
2019-03-04T12:04:48.582Z,3.90
2019-03-04T12:05:48.458Z,3.20
2019-03-04T12:06:48.334Z,3.20
2019-03-04T12:07:48.215Z,3.70
2019-03-04T12:08:48.085Z,3.00
2019-03-04T12:09:47.958Z,4.30
2019-03-04T12:10:47.834Z,3.10
2019-03-04T12:11:47.709Z,2.60
2019-03-04T12:12:47.585Z,3.10
2019-03-04T12:13:47.460Z,3.20
2019-03-04T12:14:47.338Z,2.90
2019-03-04T12:15:47.211Z,4.90
2019-03-04T12:16:47.085Z,3.00
2019-03-04T12:17:46.961Z,4.10
2019-03-04T12:18:46.837Z,3.30
2019-03-04T12:19:46.711Z,2.80
2019-03-04T12:20:46.583Z,2.80
2019-03-04T12:21:46.459Z,4.70
2019-03-04T12:22:46.336Z,3.50
2019-03-04T12:23:46.212Z,3.40
2019-03-04T12:24:46.082Z,3.10
2019-03-04T12:25:45.962Z,3.30
2019-03-04T12:26:45.834Z,2.20
2019-03-04T12:27:45.708Z,3.40
2019-03-04T12:28:45.587Z,2.90
2019-03-04T12:29:45.454Z,3.10
2019-03-04T12:30:45.337Z,3.30
2019-03-04T12:31:45.208Z,3.40
2019-03-04T12:32:45.081Z,2.30
2019-03-04T12:33:44.952Z,2.90
2019-03-04T12:34:44.827Z,3.20
2019-03-04T12:35:45.389Z,4.70
2019-03-04T12:36:45.457Z,2.60
2019-03-04T12:37:44.446Z,4.00
2019-03-04T12:38:44.323Z,3.10
2019-03-04T12:39:44.195Z,2.70
2019-03-04T12:40:44.069Z,2.90
2019-03-04T12:41:43.944Z,2.90
2019-03-04T12:42:43.819Z,2.70
2019-03-04T12:43:43.694Z,2.40
2019-03-04T12:44:43.567Z,4.10
2019-03-04T12:45:43.439Z,2.60
2019-03-04T12:46:43.316Z,2.80
2019-03-04T12:47:43.185Z,3.50
2019-03-04T12:48:43.059Z,3.80
2019-03-04T12:49:42.931Z,2.60
2019-03-04T12:50:42.806Z,3.10
2019-03-04T12:51:42.680Z,3.00
2019-03-04T12:52:42.585Z,2.50
2019-03-04T12:53:42.427Z,2.70
2019-03-04T12:54:42.299Z,2.60
2019-03-04T12:55:42.174Z,2.70
2019-03-04T12:56:42.045Z,2.10
2019-03-04T12:57:41.919Z,2.40
2019-03-04T12:58:41.795Z,2.20
2019-03-04T12:59:41.668Z,2.30
2019-03-04T13:00:41.539Z,2.40
2019-03-04T13:01:41.415Z,2.80
2019-03-04T13:02:41.287Z,2.60
2019-03-04T13:03:41.160Z,2.00
2019-03-04T13:04:41.387Z,2.00
2019-03-04T13:05:40.908Z,2.10
2019-03-04T13:06:40.780Z,2.00
2019-03-04T13:07:40.653Z,2.30
2019-03-04T13:08:40.529Z,2.30
2019-03-04T13:09:40.398Z,2.10
2019-03-04T13:10:40.274Z,2.30
2019-03-04T13:11:40.148Z,1.80
2019-03-04T13:12:40.020Z,2.10
2019-03-04T13:13:39.893Z,1.90
2019-03-04T13:14:39.765Z,2.30
2019-03-04T13:15:39.637Z,3.70
2019-03-04T13:16:39.512Z,2.00